createdAt,value
2022-10-06T00:02:06.576Z,4.30
2022-10-06T00:05:09.347Z,4.30
2022-10-06T00:08:11.849Z,4.55
2022-10-06T00:11:15.220Z,4.40
2022-10-06T00:14:18.120Z,4.32
2022-10-06T00:17:20.701Z,4.40
2022-10-06T00:20:26.247Z,4.45
2022-10-06T00:23:29.252Z,4.63
2022-10-06T00:26:31.961Z,3.83
2022-10-06T00:29:37.253Z,4.38
2022-10-06T00:32:40.302Z,4.37
2022-10-06T00:35:45.043Z,4.30
2022-10-06T00:38:47.859Z,5.00
2022-10-06T00:41:50.392Z,4.60
2022-10-06T00:44:53.396Z,4.63
2022-10-06T00:47:59.092Z,4.40
2022-10-06T00:51:01.881Z,4.32
2022-10-06T00:54:04.670Z,4.50
2022-10-06T00:57:07.475Z,4.70
2022-10-06T01:00:10.404Z,4.60
2022-10-06T01:03:23.575Z,4.43
2022-10-06T01:06:26.162Z,4.20
2022-10-06T01:09:30.116Z,4.57
2022-10-06T01:12:33.788Z,4.35
2022-10-06T01:15:39.902Z,4.65
2022-10-06T01:18:44.650Z,4.67
2022-10-06T01:21:49.655Z,4.40
2022-10-06T01:24:52.714Z,4.30
2022-10-06T01:27:57.462Z,4.20
2022-10-06T01:31:04.666Z,4.50
2022-10-06T01:34:08.004Z,4.53
2022-10-06T01:37:10.547Z,4.30
2022-10-06T01:40:13.600Z,4.65
2022-10-06T01:43:16.073Z,4.00
2022-10-06T01:46:19.212Z,4.20
2022-10-06T01:49:21.935Z,3.70
2022-10-06T01:52:24.373Z,3.72
2022-10-06T01:55:27.723Z,3.97
2022-10-06T01:58:32.906Z,4.20
2022-10-06T02:01:36.851Z,4.10
2022-10-06T02:04:40.983Z,4.10
2022-10-06T02:07:43.977Z,3.95
2022-10-06T02:10:49.953Z,4.43
2022-10-06T02:13:57.206Z,4.40
2022-10-06T02:17:00.589Z,4.32
2022-10-06T02:20:05.466Z,4.60
2022-10-06T02:23:09.500Z,3.75
2022-10-06T02:26:13.198Z,4.50
2022-10-06T02:29:15.796Z,3.95
2022-10-06T02:32:18.435Z,3.97
2022-10-06T02:35:21.323Z,4.20
2022-10-06T02:38:24.447Z,4.25
2022-10-06T02:41:27.027Z,4.00
2022-10-06T02:44:29.695Z,3.88
2022-10-06T02:47:32.689Z,3.70
2022-10-06T02:50:36.283Z,4.10
2022-10-06T02:53:40.122Z,4.07
2022-10-06T02:56:42.635Z,4.07
2022-10-06T02:59:45.246Z,3.90
2022-10-06T03:02:47.841Z,4.15
2022-10-06T03:05:50.414Z,4.40
2022-10-06T03:08:58.780Z,4.10
2022-10-06T03:12:01.734Z,3.80
2022-10-06T03:15:12.503Z,3.78
2022-10-06T03:18:15.760Z,3.92
2022-10-06T03:21:20.187Z,3.77
2022-10-06T03:24:22.663Z,4.32
2022-10-06T03:27:29.862Z,3.97
2022-10-06T03:30:36.672Z,4.10
2022-10-06T03:33:39.871Z,4.55
2022-10-06T03:36:47.488Z,4.03
2022-10-06T03:39:53.171Z,4.30
2022-10-06T03:42:55.902Z,4.57
2022-10-06T03:46:01.046Z,4.50
2022-10-06T03:49:05.946Z,4.90
2022-10-06T03:52:08.557Z,4.40
2022-10-06T03:55:13.437Z,4.00
2022-10-06T03:58:18.764Z,4.13
2022-10-06T04:01:28.101Z,3.92
2022-10-06T04:04:32.025Z,3.97
2022-10-06T04:07:42.351Z,4.20
2022-10-06T04:10:45.298Z,4.15
2022-10-06T04:13:53.320Z,3.95
2022-10-06T04:16:57.224Z,3.80
2022-10-06T04:20:05.752Z,4.22
2022-10-06T04:23:09.714Z,4.10
2022-10-06T04:26:18.473Z,4.20
2022-10-06T04:29:24.938Z,4.55
2022-10-06T04:32:30.820Z,3.70
2022-10-06T04:35:33.763Z,4.00
2022-10-06T04:38:37.804Z,4.00
2022-10-06T04:41:42.084Z,4.13
2022-10-06T04:44:46.949Z,4.15
2022-10-06T04:47:50.211Z,4.00
2022-10-06T04:51:00.999Z,4.25
2022-10-06T04:54:03.852Z,3.80
2022-10-06T04:57:09.787Z,3.90
2022-10-06T05:00:25.351Z,4.40
2022-10-06T05:03:30.410Z,4.13
2022-10-06T05:06:36.139Z,3.85
2022-10-06T05:09:38.839Z,3.80
2022-10-06T05:12:41.581Z,4.18
2022-10-06T05:15:44.310Z,4.00
2022-10-06T05:18:47.803Z,4.30
2022-10-06T05:21:50.568Z,4.55
2022-10-06T05:24:56.913Z,4.20
2022-10-06T05:27:59.915Z,4.10
2022-10-06T05:31:06.252Z,4.35
2022-10-06T05:34:09.223Z,4.30
2022-10-06T05:37:12.324Z,4.13
2022-10-06T05:40:20.260Z,4.67
2022-10-06T05:43:23.106Z,5.30
2022-10-06T05:46:33.223Z,4.95
2022-10-06T05:49:36.602Z,4.68
2022-10-06T05:52:40.552Z,4.63
2022-10-06T05:55:43.621Z,4.20
2022-10-06T05:58:51.922Z,4.53
2022-10-06T06:01:55.684Z,4.57
2022-10-06T06:05:07.083Z,4.30
2022-10-06T06:08:11.739Z,4.10
2022-10-06T06:11:14.821Z,4.73
2022-10-06T06:14:20.072Z,4.35
2022-10-06T06:17:24.302Z,4.32
2022-10-06T06:20:28.105Z,3.75
2022-10-06T06:23:34.648Z,4.25
2022-10-06T06:26:37.897Z,4.20
2022-10-06T06:29:40.462Z,4.22
2022-10-06T06:32:43.381Z,4.00
2022-10-06T06:35:45.983Z,4.10
2022-10-06T06:38:52.599Z,4.30
2022-10-06T06:41:57.884Z,4.17
2022-10-06T06:45:18.655Z,4.20
2022-10-06T06:48:55.114Z,4.47
2022-10-06T06:52:34.732Z,4.32
2022-10-06T06:55:50.695Z,4.10
2022-10-06T06:58:54.094Z,4.00
2022-10-06T07:01:58.326Z,4.07
2022-10-06T07:05:05.089Z,4.43
2022-10-06T07:08:12.185Z,4.25
2022-10-06T07:11:24.141Z,3.75
2022-10-06T07:14:27.252Z,3.73
2022-10-06T07:17:49.033Z,4.07
2022-10-06T07:21:11.428Z,4.60
2022-10-06T07:24:34.876Z,4.20
2022-10-06T07:27:44.656Z,4.20
2022-10-06T07:30:50.703Z,4.20
2022-10-06T07:34:13.267Z,4.30
2022-10-06T07:37:18.068Z,4.30
2022-10-06T07:40:23.242Z,4.30
2022-10-06T07:43:29.102Z,5.07
2022-10-06T07:46:36.176Z,4.20
2022-10-06T07:49:47.799Z,4.05
2022-10-06T07:52:51.602Z,3.80
2022-10-06T07:55:54.098Z,4.60
2022-10-06T07:59:01.714Z,4.30
2022-10-06T08:02:05.851Z,4.63
2022-10-06T08:05:09.986Z,4.03
2022-10-06T08:08:14.991Z,4.43
2022-10-06T08:11:22.022Z,4.00
2022-10-06T08:14:24.815Z,4.18
2022-10-06T08:17:27.333Z,3.90
2022-10-06T08:20:30.539Z,4.00
2022-10-06T08:23:33.196Z,4.25
2022-10-06T08:26:36.898Z,4.07
2022-10-06T08:29:41.954Z,4.00
2022-10-06T08:32:44.809Z,3.97
2022-10-06T08:35:47.267Z,4.43
2022-10-06T08:38:53.121Z,3.70
2022-10-06T08:41:56.326Z,3.58
2022-10-06T08:45:02.969Z,3.92
2022-10-06T08:48:15.783Z,3.30
2022-10-06T08:51:49.601Z,3.28
2022-10-06T08:55:04.372Z,3.50
2022-10-06T08:58:21.382Z,2.92
2022-10-06T09:01:46.328Z,3.00
2022-10-06T09:04:53.900Z,2.93
2022-10-06T09:08:25.765Z,4.65
2022-10-06T09:12:02.238Z,3.90
2022-10-06T09:15:25.191Z,4.18
2022-10-06T09:19:06.764Z,4.05
2022-10-06T09:22:11.393Z,4.43
2022-10-06T09:25:28.814Z,3.70
2022-10-06T09:28:31.713Z,4.32
2022-10-06T09:31:45.093Z,4.60
2022-10-06T09:38:11.774Z,4.30
2022-10-06T09:41:15.375Z,3.50
2022-10-06T09:44:24.912Z,3.75
2022-10-06T09:47:33.430Z,2.88
2022-10-06T09:50:37.214Z,3.35
2022-10-06T09:53:40.934Z,2.93
2022-10-06T09:56:47.343Z,3.45
2022-10-06T09:59:50.269Z,2.90
2022-10-06T10:03:06.873Z,2.83
2022-10-06T10:06:23.143Z,2.90
2022-10-06T10:09:30.082Z,2.50
2022-10-06T10:12:35.009Z,2.10
2022-10-06T10:15:55.136Z,2.20
2022-10-06T10:19:00.678Z,1.90
2022-10-06T10:22:05.261Z,2.60
2022-10-06T10:25:44.797Z,2.00
2022-10-06T10:29:32.859Z,2.25
2022-10-06T10:32:58.777Z,2.80
2022-10-06T10:36:04.558Z,2.42
2022-10-06T10:39:14.796Z,2.65
2022-10-06T10:42:25.041Z,2.13
2022-10-06T10:45:36.113Z,2.70
2022-10-06T10:49:01.810Z,2.30
2022-10-06T10:52:09.504Z,2.67
2022-10-06T10:55:27.200Z,2.72
2022-10-06T10:58:29.770Z,2.70
2022-10-06T11:01:45.304Z,2.38
2022-10-06T11:05:04.546Z,2.33
2022-10-06T11:08:13.453Z,2.80
2022-10-06T11:11:42.449Z,3.20
2022-10-06T11:14:57.237Z,2.60
2022-10-06T11:18:20.705Z,3.20
2022-10-06T11:21:36.555Z,3.20
2022-10-06T11:24:51.159Z,3.10
2022-10-06T11:28:07.136Z,3.78
2022-10-06T11:31:23.374Z,3.93
2022-10-06T11:34:27.362Z,3.28
2022-10-06T11:37:45.196Z,3.38
2022-10-06T11:40:52.421Z,3.10
2022-10-06T11:44:14.992Z,2.78
2022-10-06T11:47:35.106Z,2.50
2022-10-06T11:50:43.054Z,2.83
2022-10-06T11:53:45.912Z,2.97
2022-10-06T11:56:53.514Z,2.70
2022-10-06T12:00:06.344Z,2.90
2022-10-06T12:03:31.215Z,2.90
2022-10-06T12:06:42.952Z,2.60
2022-10-06T12:09:51.957Z,3.50
2022-10-06T12:13:31.851Z,3.35
2022-10-06T12:17:11.443Z,2.47
2022-10-06T12:20:37.113Z,2.30
2022-10-06T12:24:02.951Z,2.50
2022-10-06T12:27:26.453Z,2.10
2022-10-06T12:31:06.921Z,2.42
2022-10-06T12:34:51.548Z,2.33
2022-10-06T12:37:57.135Z,2.37
2022-10-06T12:41:01.673Z,2.20
2022-10-06T12:44:24.651Z,2.75
2022-10-06T12:47:37.307Z,2.38
2022-10-06T12:50:42.952Z,2.00
2022-10-06T12:54:15.384Z,2.00
2022-10-06T12:57:20.247Z,2.20
2022-10-06T13:03:27.096Z,2.30
2022-10-06T13:06:30.938Z,2.47
2022-10-06T13:09:34.560Z,2.03
2022-10-06T13:12:38.543Z,2.42
2022-10-06T13:15:45.479Z,2.25
2022-10-06T13:18:49.578Z,2.15
2022-10-06T13:21:54.341Z,2.20
2022-10-06T13:25:04.733Z,2.10
2022-10-06T13:28:24.051Z,2.30
2022-10-06T13:31:35.197Z,2.40
2022-10-06T13:34:43.369Z,2.40
2022-10-06T13:37:46.923Z,2.70
2022-10-06T13:41:04.533Z,2.27
2022-10-06T13:44:17.551Z,2.30
2022-10-06T13:47:25.179Z,2.10
2022-10-06T13:50:27.661Z,2.30
2022-10-06T13:53:32.467Z,2.20
2022-10-06T13:56:40.087Z,2.50
2022-10-06T13:59:42.849Z,2.33
2022-10-06T14:02:50.824Z,2.60
2022-10-06T14:06:07.728Z,2.72
2022-10-06T14:09:13.347Z,2.95
2022-10-06T14:12:18.525Z,2.17
2022-10-06T14:15:24.663Z,2.58
2022-10-06T14:18:46.962Z,2.47
2022-10-06T14:21:49.579Z,2.10
2022-10-06T14:24:52.480Z,2.42
2022-10-06T14:27:55.314Z,2.30
2022-10-06T14:30:58.842Z,2.30
2022-10-06T14:34:02.755Z,2.28
2022-10-06T14:37:05.288Z,2.20
2022-10-06T14:40:11.940Z,1.90
2022-10-06T14:43:14.944Z,2.53
2022-10-06T14:46:17.447Z,2.30
2022-10-06T14:49:20.508Z,2.30
2022-10-06T14:52:23.108Z,2.20
2022-10-06T14:55:30.876Z,2.25
2022-10-06T14:58:37.740Z,2.20
2022-10-06T15:01:40.846Z,2.17
2022-10-06T15:04:43.369Z,2.20
2022-10-06T15:08:11.146Z,2.63
2022-10-06T15:11:29.152Z,2.35
2022-10-06T15:14:32.093Z,2.60
2022-10-06T15:17:34.909Z,2.78
2022-10-06T15:20:39.025Z,2.45
2022-10-06T15:23:42.116Z,6.28
2022-10-06T15:27:04.339Z,11.52
2022-10-06T15:30:07.467Z,8.27
2022-10-06T15:33:10.325Z,5.20
2022-10-06T15:36:20.882Z,5.13
2022-10-06T15:39:26.034Z,5.75
2022-10-06T15:42:28.481Z,5.72
2022-10-06T15:45:31.137Z,6.00
2022-10-06T15:48:33.661Z,5.65
2022-10-06T15:51:51.071Z,5.80
2022-10-06T15:54:53.563Z,5.88
2022-10-06T15:57:56.367Z,6.68
2022-10-06T16:00:59.524Z,5.13
2022-10-06T16:04:11.419Z,5.72
2022-10-06T16:07:21.278Z,5.43
2022-10-06T16:10:24.385Z,5.32
2022-10-06T16:13:26.815Z,4.47
2022-10-06T16:16:29.630Z,4.60
2022-10-06T16:19:33.644Z,5.28
2022-10-06T16:22:37.277Z,5.10
2022-10-06T16:25:40.358Z,5.55
2022-10-06T16:28:43.077Z,5.07
2022-10-06T16:31:46.471Z,4.70
2022-10-06T16:34:50.735Z,5.30
2022-10-06T16:37:53.205Z,5.18
2022-10-06T16:41:03.880Z,4.82
2022-10-06T16:44:06.543Z,5.22
2022-10-06T16:47:09.178Z,4.73
2022-10-06T16:50:11.703Z,5.00
2022-10-06T16:53:16.980Z,4.82
2022-10-06T16:56:21.589Z,4.80
2022-10-06T16:59:26.610Z,4.38
2022-10-06T17:02:29.154Z,4.30
2022-10-06T17:05:34.686Z,4.05
2022-10-06T17:08:37.480Z,4.80
2022-10-06T17:11:49.256Z,5.22
2022-10-06T17:14:51.713Z,4.22
2022-10-06T17:17:56.225Z,4.30
2022-10-06T17:21:00.341Z,4.47
2022-10-06T17:24:04.158Z,3.97
2022-10-06T17:27:06.658Z,4.50
2022-10-06T17:30:09.707Z,4.57
2022-10-06T17:33:13.347Z,3.90
2022-10-06T17:36:25.382Z,4.15
2022-10-06T17:39:29.078Z,4.97
2022-10-06T17:42:32.019Z,4.47
2022-10-06T17:45:39.091Z,4.22
2022-10-06T17:48:47.033Z,3.50
2022-10-06T17:51:50.967Z,4.07
2022-10-06T17:54:54.524Z,4.30
2022-10-06T17:57:58.709Z,4.18
2022-10-06T18:01:07.475Z,4.63
2022-10-06T18:04:12.661Z,4.07
2022-10-06T18:07:15.351Z,4.13
2022-10-06T18:10:39.191Z,4.00
2022-10-06T18:13:42.935Z,4.57
2022-10-06T18:16:49.833Z,4.10
2022-10-06T18:19:58.361Z,3.63
2022-10-06T18:23:01.464Z,4.22
2022-10-06T18:26:06.601Z,4.50
2022-10-06T18:29:11.070Z,3.63
2022-10-06T18:39:01.123Z,3.78
2022-10-06T18:42:05.486Z,3.92
2022-10-06T18:45:29.274Z,3.70
2022-10-06T18:48:50.381Z,4.38
2022-10-06T18:51:58.310Z,3.57
2022-10-06T18:55:01.092Z,3.92
2022-10-06T18:58:04.830Z,4.13
2022-10-06T19:01:08.849Z,4.50
2022-10-06T19:04:15.271Z,4.32
2022-10-06T19:07:18.685Z,4.30
2022-10-06T19:10:22.496Z,4.32
2022-10-06T19:13:25.479Z,4.13
2022-10-06T19:16:28.291Z,3.88
2022-10-06T19:19:31.755Z,3.88
2022-10-06T19:22:35.233Z,3.60
2022-10-06T19:25:38.511Z,3.63
2022-10-06T19:28:41.946Z,4.18
2022-10-06T19:31:45.687Z,4.10
2022-10-06T19:34:48.946Z,5.20
2022-10-06T19:37:51.671Z,3.83
2022-10-06T19:41:15.433Z,5.10
2022-10-06T19:44:18.236Z,3.83
2022-10-06T19:47:20.899Z,3.58
2022-10-06T19:50:24.041Z,4.00
2022-10-06T19:53:26.564Z,5.20
2022-10-06T19:56:30.273Z,3.90
2022-10-06T19:59:33.559Z,4.18
2022-10-06T20:02:41.290Z,3.47
2022-10-06T20:05:44.766Z,4.10
2022-10-06T20:08:47.455Z,3.70
2022-10-06T20:11:51.723Z,3.92
2022-10-06T20:14:54.362Z,3.72
2022-10-06T20:17:58.487Z,3.65
2022-10-06T20:21:02.423Z,4.03
2022-10-06T20:24:07.911Z,4.10
2022-10-06T20:27:10.440Z,3.38
2022-10-06T20:30:13.477Z,4.00
2022-10-06T20:33:17.461Z,3.30
2022-10-06T20:36:20.509Z,3.83
2022-10-06T20:39:42.403Z,3.10
2022-10-06T20:42:50.231Z,3.25
2022-10-06T20:45:54.143Z,3.05
2022-10-06T20:49:15.113Z,3.05
2022-10-06T20:52:17.758Z,3.60
2022-10-06T20:55:20.316Z,3.40
2022-10-06T20:58:25.172Z,3.42
2022-10-06T21:01:28.100Z,3.30
2022-10-06T21:04:30.866Z,3.20
2022-10-06T21:07:34.480Z,3.35
2022-10-06T21:10:36.992Z,3.53
2022-10-06T21:13:40.392Z,3.30
2022-10-06T21:16:45.516Z,3.45
2022-10-06T21:19:48.039Z,3.17
2022-10-06T21:22:50.659Z,3.35
2022-10-06T21:25:53.531Z,3.77
2022-10-06T21:28:56.919Z,3.38
2022-10-06T21:31:59.872Z,3.22
2022-10-06T21:35:03.995Z,3.40
2022-10-06T21:38:07.366Z,3.58
2022-10-06T21:41:42.175Z,2.90
2022-10-06T21:44:44.731Z,3.35
2022-10-06T21:47:47.346Z,3.00
2022-10-06T21:50:54.284Z,3.47
2022-10-06T21:53:59.078Z,3.60
2022-10-06T21:57:01.718Z,3.30
2022-10-06T22:00:11.189Z,3.15
2022-10-06T22:03:15.949Z,3.20
2022-10-06T22:06:19.716Z,3.45
2022-10-06T22:09:22.722Z,3.33
2022-10-06T22:12:25.278Z,3.40
2022-10-06T22:15:28.049Z,3.10
2022-10-06T22:18:34.758Z,3.40
2022-10-06T22:21:39.391Z,3.50
2022-10-06T22:24:41.959Z,3.58
2022-10-06T22:27:44.723Z,3.40
2022-10-06T22:30:47.506Z,3.10
2022-10-06T22:33:52.685Z,3.10
2022-10-06T22:36:55.242Z,3.17
2022-10-06T22:39:57.847Z,3.58
2022-10-06T22:43:00.521Z,3.27
2022-10-06T22:46:04.452Z,4.25
2022-10-06T22:49:07.252Z,4.28
2022-10-06T22:52:10.085Z,3.70
2022-10-06T22:55:12.782Z,3.40
2022-10-06T22:58:16.336Z,3.47
2022-10-06T23:01:19.825Z,2.95
2022-10-06T23:04:22.543Z,2.95
2022-10-06T23:07:25.122Z,3.40
2022-10-06T23:10:30.669Z,3.45
2022-10-06T23:13:33.458Z,3.23
2022-10-06T23:16:36.049Z,3.53
2022-10-06T23:19:38.695Z,2.75
2022-10-06T23:22:41.541Z,3.17
2022-10-06T23:25:45.579Z,3.10
2022-10-06T23:28:59.610Z,3.00
2022-10-06T23:32:02.236Z,2.83
2022-10-06T23:35:05.479Z,3.15
2022-10-06T23:38:10.555Z,3.08
2022-10-06T23:41:14.088Z,3.28
2022-10-06T23:44:16.619Z,2.80
2022-10-06T23:47:19.441Z,3.17
2022-10-06T23:50:22.159Z,3.17
2022-10-06T23:53:25.080Z,3.17
2022-10-06T23:56:30.183Z,3.13
2022-10-06T23:59:32.730Z,2.73
